Pickwick Observed Data For Previous 48 Hours

Caption
Day and Hour Reservoir Elevation (behind dam)* Tailwater Elevation (below dam)* Average Hourly Discharge*
4/23/2017 1 AM CDT 413.55 364.28 49,502
4/23/2017 2 AM CDT 413.54 364.20 49,627
4/23/2017 3 AM CDT 413.56 364.17 49,572
4/23/2017 4 AM CDT 413.53 364.14 49,480
4/23/2017 5 AM CDT 413.47 364.13 49,513
4/23/2017 6 AM CDT 413.50 364.11 49,408
4/23/2017 7 AM CDT 413.60 364.09 49,548
4/23/2017 8 AM CDT 413.66 364.08 49,277
4/23/2017 9 AM CDT 413.69 364.10 49,346
4/23/2017 10 AM CDT 413.68 364.03 49,301
4/23/2017 11 AM CDT 413.75 364.01 49,444
4/23/2017 12 PM CDT 413.77 364.01 49,347
4/23/2017 1 PM CDT 413.78 363.97 49,283
4/23/2017 2 PM CDT 413.81 363.95 49,095
4/23/2017 3 PM CDT 413.79 364.21 55,537
4/23/2017 4 PM CDT 413.74 364.73 64,446
4/23/2017 5 PM CDT 413.77 365.37 73,238
4/23/2017 6 PM CDT 413.82 366.06 82,166
4/23/2017 7 PM CDT 413.81 366.99 97,813
4/23/2017 8 PM CDT 413.83 367.82 102,642
4/23/2017 9 PM CDT 413.78 368.40 103,256
4/23/2017 10 PM CDT 413.74 368.74 103,421
4/23/2017 11 PM CDT 413.72 368.96 103,668
4/24/2017 12 AM CDT 413.70 369.14 103,606
4/24/2017 1 AM CDT 413.64 369.30 103,600
4/24/2017 2 AM CDT 413.66 369.41 103,565
4/24/2017 3 AM CDT 413.64 369.55 103,588
4/24/2017 4 AM CDT 413.69 369.66 103,572
4/24/2017 5 AM CDT 413.72 369.77 103,676
4/24/2017 6 AM CDT 413.77 369.82 103,707
4/24/2017 7 AM CDT 413.80 370.01 103,708
4/24/2017 8 AM CDT 413.84 370.07 103,857
4/24/2017 9 AM CDT 413.83 370.07 103,902
4/24/2017 10 AM CDT 413.88 370.12 103,902
4/24/2017 11 AM CDT 414.02 369.81 91,639
4/24/2017 12 PM CDT 413.97 369.93 102,490
4/24/2017 1 PM CDT 414.02 370.09 104,430
4/24/2017 2 PM CDT 414.06 370.16 104,660
4/24/2017 3 PM CDT 414.10 370.27 104,848
4/24/2017 4 PM CDT 414.12 370.32 105,678
4/24/2017 5 PM CDT 414.22 370.31 106,307
4/24/2017 6 PM CDT 414.18 370.56 113,239
4/24/2017 7 PM CDT 414.24 370.91 118,741
4/24/2017 8 PM CDT 414.25 371.14 118,835
4/24/2017 9 PM CDT 414.25 371.23 118,841
4/24/2017 10 PM CDT 414.23 371.39 118,758
4/24/2017 11 PM CDT 414.30 371.41 118,743
4/25/2017 12 AM CDT 414.27 371.46 118,347
4/25/2017 1 AM CDT 414.30 371.54 118,160
4/25/2017 2 AM CDT 414.32 371.55 118,388
4/25/2017 3 AM CDT 414.33 371.60 118,446
4/25/2017 4 AM CDT 414.35 371.61 118,454
4/25/2017 5 AM CDT 414.38 371.63 118,169
4/25/2017 6 AM CDT 414.39 371.65 117,341

Elevations are in feet above sea level. Discharges are in cubic feet per second and are reported at the end of the hour.